createdAt,value
2019-02-02T00:00:34.860Z,0.00
2019-02-02T00:01:34.852Z,0.00
2019-02-02T00:02:34.850Z,0.00
2019-02-02T00:03:34.827Z,0.00
2019-02-02T00:04:34.822Z,0.00
2019-02-02T00:05:34.806Z,0.00
2019-02-02T00:06:34.796Z,0.00
2019-02-02T00:07:34.785Z,0.00
2019-02-02T00:08:34.787Z,0.00
2019-02-02T00:09:34.762Z,0.00
2019-02-02T00:10:34.753Z,0.00
2019-02-02T00:11:34.741Z,0.00
2019-02-02T00:12:34.732Z,0.00
2019-02-02T00:13:34.720Z,0.00
2019-02-02T00:14:34.720Z,0.00
2019-02-02T00:15:34.699Z,0.00
2019-02-02T00:16:34.690Z,0.00
2019-02-02T00:17:34.677Z,0.00
2019-02-02T00:18:34.666Z,0.00
2019-02-02T00:19:34.658Z,0.00
2019-02-02T00:20:34.658Z,0.00
2019-02-02T00:21:34.641Z,0.00
2019-02-02T00:22:34.623Z,0.00
2019-02-02T00:23:34.614Z,0.00
2019-02-02T00:24:34.602Z,0.00
2019-02-02T00:25:34.591Z,0.00
2019-02-02T00:26:34.596Z,0.00
2019-02-02T00:27:41.149Z,0.00
2019-02-02T00:28:35.560Z,0.00
2019-02-02T00:29:34.551Z,0.00
2019-02-02T00:30:34.539Z,0.00
2019-02-02T00:31:34.530Z,0.00
2019-02-02T00:32:34.538Z,0.00
2019-02-02T00:33:34.507Z,0.00
2019-02-02T00:34:34.497Z,0.00
2019-02-02T00:35:34.490Z,0.00
2019-02-02T00:36:34.480Z,0.00
2019-02-02T00:37:34.470Z,0.00
2019-02-02T00:38:34.476Z,0.00
2019-02-02T00:39:34.444Z,0.00
2019-02-02T00:40:34.436Z,0.00
2019-02-02T00:41:34.424Z,0.00
2019-02-02T00:42:34.415Z,0.00
2019-02-02T00:43:34.401Z,0.00
2019-02-02T00:44:34.404Z,0.00
2019-02-02T00:45:34.380Z,0.00
2019-02-02T00:46:34.372Z,0.00
2019-02-02T00:47:34.359Z,0.00
2019-02-02T00:48:34.348Z,0.00
2019-02-02T00:49:34.338Z,0.00
2019-02-02T00:50:34.338Z,0.00
2019-02-02T00:51:34.319Z,0.00
2019-02-02T00:52:34.306Z,0.00
2019-02-02T00:53:34.295Z,0.00
2019-02-02T00:54:34.286Z,0.00
2019-02-02T00:55:34.273Z,0.00
2019-02-02T00:56:34.274Z,0.00
2019-02-02T00:57:34.370Z,0.00
2019-02-02T00:58:34.243Z,0.00
2019-02-02T00:59:34.233Z,0.00
2019-02-02T01:00:34.223Z,0.00
2019-02-02T01:01:34.210Z,0.00
2019-02-02T01:02:34.209Z,0.00
2019-02-02T01:03:34.188Z,0.00
2019-02-02T01:04:34.177Z,0.00
2019-02-02T01:05:34.166Z,0.00
2019-02-02T01:06:34.156Z,0.00
2019-02-02T01:07:34.144Z,0.00
2019-02-02T01:08:34.149Z,0.00
2019-02-02T01:09:34.123Z,0.00
2019-02-02T01:10:34.113Z,0.00
2019-02-02T01:11:34.102Z,0.00
2019-02-02T01:12:34.092Z,0.00
2019-02-02T01:13:34.082Z,0.00
2019-02-02T01:14:34.082Z,0.00
2019-02-02T01:15:34.059Z,0.00
2019-02-02T01:16:34.049Z,0.00
2019-02-02T01:17:34.038Z,0.00
2019-02-02T01:18:34.027Z,0.00
2019-02-02T01:19:34.019Z,0.00
2019-02-02T01:20:34.018Z,0.00
2019-02-02T01:21:34.001Z,0.00
2019-02-02T01:22:33.984Z,0.00
2019-02-02T01:23:33.973Z,0.00
2019-02-02T01:24:33.963Z,0.00
2019-02-02T01:25:33.952Z,0.00
2019-02-02T01:26:33.954Z,0.00
2019-02-02T01:27:33.932Z,0.00
2019-02-02T01:28:33.926Z,0.00
2019-02-02T01:29:33.909Z,0.00
2019-02-02T01:30:33.901Z,0.00
2019-02-02T01:31:33.888Z,0.00
2019-02-02T01:32:33.889Z,0.00
2019-02-02T01:33:33.867Z,0.00
2019-02-02T01:34:33.858Z,0.00
2019-02-02T01:35:33.846Z,0.00
2019-02-02T01:36:33.834Z,0.00
2019-02-02T01:37:33.823Z,0.00
2019-02-02T01:38:33.827Z,0.00
2019-02-02T01:39:33.801Z,0.00
2019-02-02T01:40:33.794Z,0.00
2019-02-02T01:41:33.781Z,0.00
2019-02-02T01:42:33.769Z,0.00
2019-02-02T01:43:33.773Z,0.00
2019-02-02T01:44:33.765Z,0.00
2019-02-02T01:45:33.737Z,0.00
2019-02-02T01:46:33.834Z,0.00
2019-02-02T01:47:33.716Z,0.00
2019-02-02T01:48:33.705Z,0.00
2019-02-02T01:49:33.695Z,0.00
2019-02-02T01:50:33.699Z,0.00
2019-02-02T01:51:33.674Z,0.00
2019-02-02T01:52:33.671Z,0.00
2019-02-02T01:53:33.652Z,0.00
2019-02-02T01:54:33.643Z,0.00
2019-02-02T01:55:33.632Z,0.00
2019-02-02T01:56:33.634Z,0.00
2019-02-02T01:57:33.609Z,0.00
2019-02-02T01:58:33.601Z,0.00
2019-02-02T01:59:33.587Z,0.00
2019-02-02T02:00:33.576Z,0.00
2019-02-02T02:01:33.567Z,0.00
2019-02-02T02:02:33.569Z,0.00
2019-02-02T02:03:33.544Z,0.00
2019-02-02T02:04:33.534Z,0.00
2019-02-02T02:05:33.525Z,0.00
2019-02-02T02:06:33.512Z,0.00
2019-02-02T02:07:33.503Z,0.00
2019-02-02T02:08:33.513Z,0.00
2019-02-02T02:09:33.479Z,0.00
2019-02-02T02:10:33.588Z,0.00
2019-02-02T02:11:33.457Z,0.00
2019-02-02T02:12:33.450Z,0.00
2019-02-02T02:13:33.436Z,0.00
2019-02-02T02:14:33.437Z,0.00
2019-02-02T02:15:33.414Z,0.00
2019-02-02T02:16:33.410Z,0.00
2019-02-02T02:17:33.392Z,0.00
2019-02-02T02:18:33.383Z,0.00
2019-02-02T02:19:33.371Z,0.00
2019-02-02T02:20:33.374Z,0.00
2019-02-02T02:21:33.351Z,0.00
2019-02-02T02:22:40.937Z,0.00
2019-02-02T02:23:34.332Z,0.00
2019-02-02T02:24:33.384Z,0.00
2019-02-02T02:25:33.308Z,0.00
2019-02-02T02:26:33.313Z,0.00
2019-02-02T02:27:33.288Z,0.00
2019-02-02T02:28:33.277Z,0.00
2019-02-02T02:29:33.266Z,0.00
2019-02-02T02:30:33.257Z,0.00
2019-02-02T02:31:33.244Z,0.00
2019-02-02T02:32:33.246Z,0.00
2019-02-02T02:33:33.226Z,0.00
2019-02-02T02:34:33.222Z,0.00
2019-02-02T02:35:33.202Z,0.00
2019-02-02T02:36:33.195Z,0.00
2019-02-02T02:37:33.180Z,0.00
2019-02-02T02:38:33.183Z,0.00
2019-02-02T02:39:33.161Z,0.00
2019-02-02T02:40:33.149Z,0.00
2019-02-02T02:41:33.137Z,0.00
2019-02-02T02:42:33.128Z,0.00
2019-02-02T02:43:33.115Z,0.00
2019-02-02T02:44:33.117Z,0.00
2019-02-02T02:45:33.094Z,0.00
2019-02-02T02:46:33.085Z,0.00
2019-02-02T02:47:33.073Z,0.00
2019-02-02T02:48:33.065Z,0.00
2019-02-02T02:49:33.180Z,0.00
2019-02-02T02:50:33.061Z,0.00
2019-02-02T02:51:33.031Z,0.00
2019-02-02T02:52:33.020Z,0.00
2019-02-02T02:53:33.009Z,0.00
2019-02-02T02:54:32.998Z,0.00
2019-02-02T02:55:32.986Z,0.00
2019-02-02T02:56:32.991Z,0.00
2019-02-02T02:57:32.965Z,0.00
2019-02-02T02:58:41.119Z,0.00
2019-02-02T02:59:33.942Z,0.00
2019-02-02T03:00:32.934Z,0.00
2019-02-02T03:01:32.922Z,0.00
2019-02-02T03:02:32.922Z,0.00
2019-02-02T03:03:32.902Z,0.00
2019-02-02T03:04:33.061Z,0.00
2019-02-02T03:05:32.878Z,0.00
2019-02-02T03:06:32.869Z,0.00
2019-02-02T03:07:32.863Z,0.00
2019-02-02T03:08:32.865Z,0.00
2019-02-02T03:09:32.952Z,0.00
2019-02-02T03:10:32.834Z,0.00
2019-02-02T03:11:32.813Z,0.00
2019-02-02T03:12:32.803Z,0.00
2019-02-02T03:13:32.799Z,0.00
2019-02-02T03:14:32.821Z,0.00
2019-02-02T03:15:32.771Z,0.00
2019-02-02T03:16:32.759Z,0.00
2019-02-02T03:17:32.750Z,0.00
2019-02-02T03:18:32.737Z,0.00
2019-02-02T03:19:32.729Z,0.00
2019-02-02T03:20:32.728Z,0.00
2019-02-02T03:21:32.704Z,0.00
2019-02-02T03:22:32.694Z,0.00
2019-02-02T03:23:32.683Z,0.00
2019-02-02T03:24:32.672Z,0.00
2019-02-02T03:25:32.660Z,0.00
2019-02-02T03:26:32.664Z,0.00
2019-02-02T03:27:32.642Z,0.00
2019-02-02T03:28:32.637Z,0.00
2019-02-02T03:29:32.618Z,0.00
2019-02-02T03:30:32.607Z,0.00
2019-02-02T03:31:32.601Z,0.00
2019-02-02T03:32:32.611Z,0.00
2019-02-02T03:33:32.576Z,0.00
2019-02-02T03:34:32.567Z,0.00
2019-02-02T03:35:32.552Z,0.00
2019-02-02T03:36:32.541Z,0.00
2019-02-02T03:37:32.537Z,0.00
2019-02-02T03:38:32.532Z,0.00
2019-02-02T03:39:32.557Z,0.00
2019-02-02T03:40:32.499Z,0.00
2019-02-02T03:41:32.488Z,0.00
2019-02-02T03:42:32.478Z,0.00
2019-02-02T03:43:32.466Z,0.00
2019-02-02T03:44:32.467Z,0.00
2019-02-02T03:45:32.446Z,0.00
2019-02-02T03:46:32.445Z,0.00
2019-02-02T03:47:32.424Z,0.00
2019-02-02T03:48:32.416Z,0.00
2019-02-02T03:49:32.400Z,0.00
2019-02-02T03:50:32.404Z,0.00
2019-02-02T03:51:32.382Z,0.00
2019-02-02T03:52:32.369Z,0.00
2019-02-02T03:53:32.358Z,0.00
2019-02-02T03:54:32.346Z,0.00
2019-02-02T03:55:32.334Z,0.00
2019-02-02T03:56:32.338Z,0.00
2019-02-02T03:57:32.312Z,0.00
2019-02-02T03:58:32.303Z,0.00
2019-02-02T03:59:32.290Z,0.00
2019-02-02T04:00:32.279Z,0.00
2019-02-02T04:01:32.272Z,0.00
2019-02-02T04:02:32.271Z,0.00
2019-02-02T04:03:32.246Z,0.00
2019-02-02T04:04:32.246Z,0.00
2019-02-02T04:05:32.224Z,0.00
2019-02-02T04:06:32.348Z,0.00
2019-02-02T04:07:32.203Z,0.00
2019-02-02T04:08:32.202Z,0.00
2019-02-02T04:09:32.180Z,0.00
2019-02-02T04:10:32.170Z,0.00
2019-02-02T04:11:32.163Z,0.00
2019-02-02T04:12:32.147Z,0.00
2019-02-02T04:13:32.145Z,0.00
2019-02-02T04:14:32.137Z,0.00
2019-02-02T04:15:32.114Z,0.00
2019-02-02T04:16:32.103Z,0.00
2019-02-02T04:17:32.094Z,0.00
2019-02-02T04:18:32.081Z,0.00
2019-02-02T04:19:32.070Z,0.00
2019-02-02T04:20:32.072Z,0.00
2019-02-02T04:21:32.048Z,0.00
2019-02-02T04:22:32.037Z,0.00
2019-02-02T04:23:32.028Z,0.00
2019-02-02T04:24:32.016Z,0.00
2019-02-02T04:25:32.007Z,0.00
2019-02-02T04:26:32.006Z,0.00
2019-02-02T04:27:31.983Z,0.00
2019-02-02T04:28:31.971Z,0.00
2019-02-02T04:29:31.965Z,0.00
2019-02-02T04:30:31.950Z,0.00
2019-02-02T04:31:31.939Z,0.00
2019-02-02T04:32:31.940Z,0.00
2019-02-02T04:33:31.917Z,0.00
2019-02-02T04:34:31.934Z,0.00
2019-02-02T04:35:31.900Z,0.00
2019-02-02T04:36:31.884Z,0.00
2019-02-02T04:37:31.872Z,0.00
2019-02-02T04:38:31.879Z,0.00
2019-02-02T04:39:31.851Z,0.00
2019-02-02T04:40:31.840Z,0.00
2019-02-02T04:41:31.830Z,0.00
2019-02-02T04:42:31.818Z,0.00
2019-02-02T04:43:31.889Z,0.00
2019-02-02T04:44:31.807Z,0.00
2019-02-02T04:45:31.785Z,0.00
2019-02-02T04:46:31.774Z,0.00
2019-02-02T04:47:31.764Z,0.00
2019-02-02T04:48:32.550Z,0.00
2019-02-02T04:49:31.742Z,0.00
2019-02-02T04:50:31.746Z,0.00
2019-02-02T04:51:31.721Z,0.00
2019-02-02T04:52:31.714Z,0.00
2019-02-02T04:53:31.703Z,0.00
2019-02-02T04:54:31.689Z,0.00
2019-02-02T04:55:31.684Z,0.00
2019-02-02T04:56:31.678Z,0.00
2019-02-02T04:57:31.657Z,0.00
2019-02-02T04:58:31.644Z,0.00
2019-02-02T04:59:31.635Z,0.00
2019-02-02T05:00:31.623Z,0.00
2019-02-02T05:01:31.612Z,0.00
2019-02-02T05:02:31.623Z,0.00
2019-02-02T05:03:31.591Z,0.00
2019-02-02T05:04:31.580Z,0.00
2019-02-02T05:05:31.568Z,0.00
2019-02-02T05:06:31.558Z,0.00
2019-02-02T05:07:31.548Z,0.00
2019-02-02T05:08:31.555Z,0.00
2019-02-02T05:09:31.526Z,0.00
2019-02-02T05:10:31.515Z,0.00
2019-02-02T05:11:31.504Z,0.00
2019-02-02T05:12:31.493Z,0.00
2019-02-02T05:13:31.483Z,0.00
2019-02-02T05:14:31.486Z,0.00
2019-02-02T05:15:31.469Z,0.00
2019-02-02T05:16:31.451Z,0.00
2019-02-02T05:17:31.438Z,0.00
2019-02-02T05:18:31.428Z,0.00
2019-02-02T05:19:31.485Z,0.00
2019-02-02T05:20:31.418Z,0.00
2019-02-02T05:21:31.395Z,0.00
2019-02-02T05:22:31.386Z,0.00
2019-02-02T05:23:31.375Z,0.00
2019-02-02T05:24:31.364Z,0.00
2019-02-02T05:25:31.354Z,0.00
2019-02-02T05:26:31.354Z,0.00
2019-02-02T05:27:31.331Z,0.00
2019-02-02T05:28:31.322Z,0.00
2019-02-02T05:29:41.124Z,0.00
2019-02-02T05:30:32.298Z,0.00
2019-02-02T05:31:31.289Z,0.00
2019-02-02T05:32:31.289Z,0.00
2019-02-02T05:33:31.267Z,0.00
2019-02-02T05:34:31.262Z,0.00
2019-02-02T05:35:31.245Z,0.00
2019-02-02T05:36:31.234Z,0.00
2019-02-02T05:37:31.223Z,0.00
2019-02-02T05:38:31.240Z,0.00
2019-02-02T05:39:31.204Z,0.00
2019-02-02T05:40:31.191Z,0.00
2019-02-02T05:41:31.182Z,0.00
2019-02-02T05:42:31.169Z,0.00
2019-02-02T05:43:31.168Z,0.00
2019-02-02T05:44:31.166Z,0.00
2019-02-02T05:45:31.151Z,0.00
2019-02-02T05:46:31.127Z,0.00
2019-02-02T05:47:31.116Z,0.00
2019-02-02T05:48:31.105Z,0.00
2019-02-02T05:49:31.095Z,0.00
2019-02-02T05:50:31.096Z,0.00
2019-02-02T05:51:31.074Z,0.00
2019-02-02T05:52:31.064Z,0.00
2019-02-02T05:53:31.051Z,0.00
2019-02-02T05:54:31.040Z,0.00
2019-02-02T05:55:31.032Z,0.00
2019-02-02T05:56:31.049Z,0.00
2019-02-02T05:57:31.008Z,0.00
2019-02-02T05:58:30.998Z,0.00
2019-02-02T05:59:30.987Z,0.00
2019-02-02T06:00:30.977Z,0.00
2019-02-02T06:01:30.968Z,0.00
2019-02-02T06:02:30.970Z,0.00
2019-02-02T06:03:30.946Z,0.00
2019-02-02T06:04:30.936Z,0.00
2019-02-02T06:05:30.928Z,0.00
2019-02-02T06:06:30.913Z,0.00
2019-02-02T06:07:30.903Z,0.00
2019-02-02T06:08:30.914Z,0.00
2019-02-02T06:09:30.881Z,0.00
2019-02-02T06:10:30.871Z,0.00
2019-02-02T06:11:30.861Z,0.00
2019-02-02T06:12:30.849Z,0.00
2019-02-02T06:13:30.841Z,0.00
2019-02-02T06:14:30.842Z,0.00
2019-02-02T06:15:30.819Z,0.00
2019-02-02T06:16:30.807Z,0.00
2019-02-02T06:17:30.797Z,0.00
2019-02-02T06:18:30.789Z,0.00
2019-02-02T06:19:30.776Z,0.00
2019-02-02T06:20:30.782Z,0.00
2019-02-02T06:21:30.756Z,0.00
2019-02-02T06:22:30.744Z,0.00
2019-02-02T06:23:30.736Z,0.00
2019-02-02T06:24:30.724Z,0.00
2019-02-02T06:25:30.712Z,0.00
2019-02-02T06:26:30.717Z,0.00
2019-02-02T06:27:30.691Z,0.00
2019-02-02T06:28:30.681Z,0.00
2019-02-02T06:29:30.670Z,0.00
2019-02-02T06:30:30.660Z,0.00
2019-02-02T06:31:30.648Z,0.00
2019-02-02T06:32:30.656Z,0.00
2019-02-02T06:33:30.630Z,0.00
2019-02-02T06:34:30.619Z,0.00
2019-02-02T06:35:30.608Z,0.00
2019-02-02T06:36:30.596Z,0.00
2019-02-02T06:37:30.586Z,0.00
2019-02-02T06:38:30.598Z,0.00
2019-02-02T06:39:30.565Z,0.00
2019-02-02T06:40:30.553Z,0.00
2019-02-02T06:41:30.544Z,0.00
2019-02-02T06:42:30.531Z,0.00
2019-02-02T06:43:30.524Z,0.00
2019-02-02T06:44:30.521Z,0.00
2019-02-02T06:45:30.500Z,0.00
2019-02-02T06:46:30.492Z,0.00
2019-02-02T06:47:30.479Z,0.00
2019-02-02T06:48:30.467Z,0.00
2019-02-02T06:49:30.460Z,0.00
2019-02-02T06:50:30.463Z,0.00
2019-02-02T06:51:30.435Z,0.00
2019-02-02T06:52:30.424Z,0.00
2019-02-02T06:53:30.431Z,0.00
2019-02-02T06:54:33.769Z,0.00
2019-02-02T06:55:30.392Z,0.00
2019-02-02T06:56:30.396Z,0.00
2019-02-02T06:57:30.380Z,0.00
2019-02-02T06:58:30.360Z,0.00
2019-02-02T06:59:30.349Z,0.00
2019-02-02T07:00:30.340Z,0.00
2019-02-02T07:01:30.328Z,0.00
2019-02-02T07:02:30.327Z,0.00
2019-02-02T07:03:30.311Z,0.00
2019-02-02T07:04:30.295Z,0.00
2019-02-02T07:05:30.285Z,0.00
2019-02-02T07:06:30.276Z,0.00
2019-02-02T07:07:30.263Z,0.00
2019-02-02T07:08:30.267Z,4.00
2019-02-02T07:09:30.242Z,4.00
2019-02-02T07:10:30.366Z,4.00
2019-02-02T07:11:30.220Z,0.00
2019-02-02T07:12:30.211Z,4.00
2019-02-02T07:13:30.202Z,4.00
2019-02-02T07:14:30.201Z,0.00
2019-02-02T07:15:30.179Z,4.00
2019-02-02T07:16:30.298Z,4.00
2019-02-02T07:17:30.158Z,4.00
2019-02-02T07:18:30.147Z,4.00
2019-02-02T07:19:30.138Z,8.00
2019-02-02T07:20:30.138Z,8.00
2019-02-02T07:21:30.115Z,4.00
2019-02-02T07:22:30.107Z,4.00
2019-02-02T07:23:30.094Z,4.00
2019-02-02T07:24:30.084Z,4.00
2019-02-02T07:25:30.073Z,4.00
2019-02-02T07:26:30.075Z,4.00
2019-02-02T07:27:30.053Z,4.00
2019-02-02T07:28:30.041Z,4.00
2019-02-02T07:29:30.030Z,8.00
2019-02-02T07:30:30.036Z,8.00
2019-02-02T07:31:30.014Z,8.00
2019-02-02T07:32:30.021Z,8.00
2019-02-02T07:33:29.996Z,8.00
2019-02-02T07:34:29.977Z,8.00
2019-02-02T07:35:29.966Z,8.00
2019-02-02T07:36:29.958Z,8.00
2019-02-02T07:37:29.945Z,12.00
2019-02-02T07:38:29.949Z,8.00
2019-02-02T07:39:29.923Z,12.00
2019-02-02T07:40:29.914Z,8.00
2019-02-02T07:41:29.903Z,12.00
2019-02-02T07:42:29.892Z,16.00
2019-02-02T07:43:29.889Z,12.00
2019-02-02T07:44:29.891Z,16.00
2019-02-02T07:45:29.860Z,12.00
2019-02-02T07:46:29.852Z,16.00
2019-02-02T07:47:29.839Z,16.00
2019-02-02T07:48:29.829Z,12.00
2019-02-02T07:49:29.820Z,16.00
2019-02-02T07:50:29.821Z,16.00
2019-02-02T07:51:29.797Z,16.00
2019-02-02T07:52:29.786Z,20.00
2019-02-02T07:53:29.776Z,16.00
2019-02-02T07:54:29.765Z,20.00
2019-02-02T07:55:29.756Z,20.00
2019-02-02T07:56:29.756Z,20.00
2019-02-02T07:57:29.734Z,20.00
2019-02-02T07:58:29.723Z,24.00
2019-02-02T07:59:29.712Z,24.00
2019-02-02T08:00:40.178Z,24.00
2019-02-02T08:01:30.705Z,28.00
2019-02-02T08:02:29.682Z,24.00
2019-02-02T08:03:29.670Z,28.00
2019-02-02T08:04:29.666Z,28.00
2019-02-02T08:05:29.649Z,32.00
2019-02-02T08:06:29.638Z,32.00
2019-02-02T08:07:29.640Z,32.00
2019-02-02T08:08:29.620Z,32.00
2019-02-02T08:09:29.607Z,36.00
2019-02-02T08:10:29.596Z,40.00
2019-02-02T08:11:29.586Z,40.00
2019-02-02T08:12:29.578Z,44.00
2019-02-02T08:13:29.576Z,44.00
2019-02-02T08:14:29.555Z,52.00
2019-02-02T08:15:29.543Z,56.00
2019-02-02T08:16:29.533Z,60.00
2019-02-02T08:17:32.324Z,64.00
2019-02-02T08:18:29.512Z,72.00
2019-02-02T08:19:29.517Z,76.00
2019-02-02T08:20:29.491Z,80.00
2019-02-02T08:21:29.481Z,92.00
2019-02-02T08:22:29.469Z,96.00
2019-02-02T08:23:29.460Z,100.00
2019-02-02T08:24:29.449Z,104.00
2019-02-02T08:25:29.452Z,112.00
2019-02-02T08:26:29.429Z,116.00
2019-02-02T08:27:29.417Z,124.00
2019-02-02T08:28:29.406Z,132.00
2019-02-02T08:29:29.400Z,140.00
2019-02-02T08:30:29.386Z,144.00
2019-02-02T08:31:29.389Z,148.00
2019-02-02T08:32:29.367Z,152.00
2019-02-02T08:33:29.354Z,152.00
2019-02-02T08:34:29.343Z,160.00
2019-02-02T08:35:29.332Z,156.00
2019-02-02T08:36:29.326Z,156.00
2019-02-02T08:37:29.324Z,148.00
2019-02-02T08:38:29.303Z,144.00
2019-02-02T08:39:29.600Z,136.00
2019-02-02T08:40:29.278Z,128.00
2019-02-02T08:41:29.268Z,124.00
2019-02-02T08:42:29.258Z,120.00
2019-02-02T08:43:29.265Z,120.00
2019-02-02T08:44:29.665Z,120.00
2019-02-02T08:45:29.229Z,124.00
2019-02-02T08:46:29.215Z,124.00
2019-02-02T08:47:29.205Z,128.00
2019-02-02T08:48:29.196Z,124.00
2019-02-02T08:49:29.196Z,128.00
2019-02-02T08:50:29.175Z,124.00
2019-02-02T08:51:29.166Z,124.00
2019-02-02T08:52:29.154Z,124.00
2019-02-02T08:53:29.142Z,120.00
2019-02-02T08:54:29.137Z,120.00
2019-02-02T08:55:29.179Z,116.00
2019-02-02T08:56:29.120Z,116.00
2019-02-02T08:57:29.103Z,112.00
2019-02-02T08:58:29.088Z,116.00
2019-02-02T08:59:29.078Z,116.00
2019-02-02T09:00:29.070Z,116.00
2019-02-02T09:01:29.071Z,112.00
2019-02-02T09:02:29.052Z,108.00
2019-02-02T09:03:29.061Z,108.00
2019-02-02T09:04:29.052Z,104.00
2019-02-02T09:05:29.015Z,104.00
2019-02-02T09:06:38.575Z,100.00
2019-02-02T09:07:30.008Z,100.00
2019-02-02T09:08:28.987Z,96.00
2019-02-02T09:09:28.972Z,92.00
2019-02-02T09:10:28.965Z,92.00
2019-02-02T09:11:28.951Z,92.00
2019-02-02T09:12:28.940Z,96.00
2019-02-02T09:13:28.942Z,96.00
2019-02-02T09:14:28.918Z,96.00
2019-02-02T09:15:28.909Z,100.00
2019-02-02T09:16:28.901Z,100.00
2019-02-02T09:17:28.891Z,104.00
2019-02-02T09:18:28.877Z,108.00
2019-02-02T09:19:28.888Z,112.00
2019-02-02T09:20:28.857Z,112.00
2019-02-02T09:21:28.846Z,112.00
2019-02-02T09:22:28.835Z,112.00
2019-02-02T09:23:28.825Z,108.00
2019-02-02T09:24:28.814Z,108.00
2019-02-02T09:25:28.821Z,104.00
2019-02-02T09:26:28.796Z,104.00
2019-02-02T09:27:28.782Z,104.00
2019-02-02T09:28:28.775Z,104.00
2019-02-02T09:29:28.761Z,100.00
2019-02-02T09:30:28.752Z,96.00
2019-02-02T09:31:28.764Z,100.00
2019-02-02T09:32:28.730Z,100.00
2019-02-02T09:33:28.722Z,100.00
2019-02-02T09:34:29.038Z,100.00
2019-02-02T09:35:28.698Z,104.00
2019-02-02T09:36:28.701Z,104.00
2019-02-02T09:37:28.689Z,104.00
2019-02-02T09:38:28.670Z,108.00
2019-02-02T09:39:28.655Z,116.00
2019-02-02T09:40:28.648Z,124.00
2019-02-02T09:41:28.634Z,132.00
2019-02-02T09:42:28.626Z,136.00
2019-02-02T09:43:28.626Z,144.00
2019-02-02T09:44:28.603Z,148.00
2019-02-02T09:45:28.601Z,152.00
2019-02-02T09:46:28.601Z,152.00
2019-02-02T09:47:28.602Z,156.00
2019-02-02T09:48:28.599Z,156.00
2019-02-02T09:49:28.629Z,160.00
2019-02-02T09:50:28.592Z,164.00
2019-02-02T09:51:28.589Z,172.00
2019-02-02T09:52:28.701Z,184.00
2019-02-02T09:53:28.578Z,196.00
2019-02-02T09:54:28.571Z,212.00
2019-02-02T09:55:28.576Z,212.00
2019-02-02T09:56:28.556Z,212.00
2019-02-02T09:57:28.555Z,208.00
2019-02-02T09:58:28.547Z,200.00
2019-02-02T09:59:28.534Z,184.00
2019-02-02T10:00:28.527Z,184.00
2019-02-02T10:01:28.533Z,176.00
2019-02-02T10:02:28.536Z,172.00
2019-02-02T10:03:28.505Z,172.00
2019-02-02T10:04:28.495Z,164.00
2019-02-02T10:05:28.486Z,164.00
2019-02-02T10:06:28.475Z,160.00
2019-02-02T10:07:28.478Z,160.00
2019-02-02T10:08:28.457Z,168.00
2019-02-02T10:09:28.452Z,172.00
2019-02-02T10:10:28.439Z,176.00
2019-02-02T10:11:28.430Z,180.00
2019-02-02T10:12:28.421Z,180.00
2019-02-02T10:13:28.423Z,180.00
2019-02-02T10:14:28.404Z,184.00
2019-02-02T10:15:28.400Z,188.00
2019-02-02T10:16:28.396Z,188.00
2019-02-02T10:17:28.384Z,188.00
2019-02-02T10:18:28.388Z,192.00
2019-02-02T10:19:28.381Z,196.00
2019-02-02T10:20:28.482Z,112.00
2019-02-02T10:21:28.359Z,200.00
2019-02-02T10:22:28.347Z,204.00
2019-02-02T10:23:28.337Z,208.00
2019-02-02T10:24:28.777Z,204.00
2019-02-02T10:25:28.326Z,160.00
2019-02-02T10:26:28.300Z,188.00
2019-02-02T10:27:28.288Z,180.00
2019-02-02T10:28:28.282Z,168.00
2019-02-02T10:29:28.273Z,168.00
2019-02-02T10:30:28.806Z,164.00
2019-02-02T10:31:39.280Z,164.00
2019-02-02T10:32:29.755Z,164.00
2019-02-02T10:33:28.740Z,172.00
2019-02-02T10:34:28.720Z,184.00
2019-02-02T10:35:28.702Z,192.00
2019-02-02T10:36:28.705Z,200.00
2019-02-02T10:37:28.666Z,196.00
2019-02-02T10:38:28.385Z,192.00
2019-02-02T10:39:28.371Z,172.00
2019-02-02T10:40:30.021Z,180.00
2019-02-02T10:41:28.349Z,184.00
2019-02-02T10:42:28.351Z,172.00
2019-02-02T10:43:28.351Z,160.00
2019-02-02T10:44:17.418Z,180.00
2019-02-02T10:45:17.379Z,172.00
2019-02-02T10:46:17.346Z,168.00
2019-02-02T10:47:17.315Z,176.00
2019-02-02T10:48:17.301Z,176.00
2019-02-02T10:49:17.252Z,172.00
2019-02-02T10:50:17.217Z,172.00
2019-02-02T10:51:17.180Z,172.00
2019-02-02T10:52:17.156Z,176.00
2019-02-02T10:53:17.109Z,176.00
2019-02-02T10:54:17.104Z,176.00
2019-02-02T10:55:17.039Z,172.00
2019-02-02T10:56:17.015Z,172.00
2019-02-02T10:57:16.972Z,164.00
2019-02-02T10:58:16.932Z,172.00
2019-02-02T10:59:16.898Z,176.00
2019-02-02T11:00:16.874Z,176.00
2019-02-02T11:01:16.827Z,176.00
2019-02-02T11:02:17.866Z,172.00
2019-02-02T11:03:16.745Z,168.00
2019-02-02T11:04:16.744Z,172.00
2019-02-02T11:05:16.737Z,172.00
2019-02-02T11:06:16.651Z,172.00
2019-02-02T11:07:16.676Z,176.00
2019-02-02T11:08:16.685Z,176.00
2019-02-02T11:09:16.646Z,176.00
2019-02-02T11:10:18.301Z,168.00
2019-02-02T11:11:16.439Z,168.00
2019-02-02T11:12:16.496Z,164.00
2019-02-02T11:13:16.589Z,152.00
2019-02-02T11:14:16.435Z,148.00
2019-02-02T11:15:16.301Z,140.00
2019-02-02T11:16:16.268Z,132.00
2019-02-02T11:17:16.240Z,128.00
2019-02-02T11:18:16.220Z,128.00
2019-02-02T11:19:16.255Z,124.00
2019-02-02T11:20:17.688Z,124.00
2019-02-02T11:21:16.044Z,116.00
2019-02-02T11:22:16.039Z,116.00
2019-02-02T11:23:16.118Z,112.00
2019-02-02T11:24:18.860Z,112.00
2019-02-02T11:25:15.904Z,112.00
2019-02-02T11:26:15.989Z,108.00
2019-02-02T11:27:15.982Z,108.00
2019-02-02T11:28:15.904Z,108.00
2019-02-02T11:29:15.789Z,116.00
2019-02-02T11:30:15.819Z,124.00
2019-02-02T11:31:15.688Z,128.00
2019-02-02T11:32:15.648Z,136.00
2019-02-02T11:33:15.616Z,140.00
2019-02-02T11:34:15.578Z,148.00
2019-02-02T11:35:15.685Z,160.00
2019-02-02T11:36:15.557Z,160.00
2019-02-02T11:37:15.489Z,164.00
2019-02-02T11:38:15.433Z,156.00
2019-02-02T11:39:15.408Z,152.00
2019-02-02T11:40:15.361Z,152.00
2019-02-02T11:41:15.326Z,148.00
2019-02-02T11:42:15.299Z,144.00
2019-02-02T11:43:15.259Z,136.00
2019-02-02T11:44:15.227Z,136.00
2019-02-02T11:45:15.202Z,136.00
2019-02-02T11:46:15.153Z,140.00
2019-02-02T11:47:15.114Z,144.00
2019-02-02T11:48:15.277Z,144.00
2019-02-02T11:49:15.061Z,144.00
2019-02-02T11:50:15.013Z,144.00
2019-02-02T11:51:14.981Z,144.00
2019-02-02T11:52:14.949Z,144.00
2019-02-02T11:53:14.916Z,140.00
2019-02-02T11:54:14.897Z,132.00
2019-02-02T11:55:14.853Z,128.00
2019-02-02T11:56:14.825Z,124.00
2019-02-02T11:57:14.797Z,124.00
2019-02-02T11:58:14.765Z,124.00
2019-02-02T11:59:14.732Z,124.00
2019-02-02T12:00:16.413Z,120.00
2019-02-02T12:01:14.670Z,112.00
2019-02-02T12:02:14.994Z,108.00
2019-02-02T12:03:14.599Z,104.00
2019-02-02T12:04:14.565Z,96.00
2019-02-02T12:05:14.527Z,96.00
2019-02-02T12:06:14.501Z,92.00
2019-02-02T12:07:14.454Z,88.00
2019-02-02T12:08:14.418Z,88.00
2019-02-02T12:09:14.383Z,88.00
2019-02-02T12:10:14.347Z,84.00
2019-02-02T12:11:14.309Z,88.00
2019-02-02T12:12:14.284Z,88.00
2019-02-02T12:13:14.229Z,88.00
2019-02-02T12:14:14.195Z,84.00
2019-02-02T12:15:14.156Z,84.00
2019-02-02T12:16:14.112Z,80.00
2019-02-02T12:17:14.071Z,76.00
2019-02-02T12:18:14.049Z,80.00
2019-02-02T12:19:13.996Z,76.00
2019-02-02T12:20:13.961Z,76.00
2019-02-02T12:21:13.923Z,76.00
2019-02-02T12:22:13.885Z,76.00
2019-02-02T12:23:13.846Z,72.00
2019-02-02T12:24:16.220Z,52.00
2019-02-02T12:25:13.767Z,80.00
2019-02-02T12:26:13.719Z,76.00
2019-02-02T12:27:13.680Z,72.00
2019-02-02T12:28:13.643Z,44.00
2019-02-02T12:29:13.604Z,72.00
2019-02-02T12:30:13.569Z,72.00
2019-02-02T12:31:13.522Z,72.00
2019-02-02T12:32:13.486Z,72.00
2019-02-02T12:33:13.443Z,68.00
2019-02-02T12:34:13.401Z,64.00
2019-02-02T12:35:13.360Z,60.00
2019-02-02T12:36:13.333Z,64.00
2019-02-02T12:37:13.282Z,60.00
2019-02-02T12:38:13.286Z,60.00
2019-02-02T12:39:13.202Z,60.00
2019-02-02T12:40:13.167Z,60.00
2019-02-02T12:41:13.117Z,64.00
2019-02-02T12:42:13.093Z,64.00
2019-02-02T12:43:13.040Z,68.00
2019-02-02T12:44:12.997Z,72.00
2019-02-02T12:45:12.958Z,76.00
2019-02-02T12:46:12.921Z,80.00
2019-02-02T12:47:12.883Z,76.00
2019-02-02T12:48:12.855Z,76.00
2019-02-02T12:49:12.798Z,84.00
2019-02-02T12:50:12.757Z,84.00
2019-02-02T12:51:12.720Z,84.00
2019-02-02T12:52:12.677Z,84.00
2019-02-02T12:53:12.633Z,88.00
2019-02-02T12:54:12.603Z,92.00
2019-02-02T12:55:12.550Z,88.00
2019-02-02T12:56:12.513Z,84.00
2019-02-02T12:57:12.469Z,84.00
2019-02-02T12:58:12.431Z,84.00
2019-02-02T12:59:12.394Z,88.00
2019-02-02T13:00:12.368Z,84.00